Hua Hin, Thailand
Current Conditions -  °F | °C
As of 9:00 AM on Friday 21 Nov 2014 (Local Time) from VTBU Reporting Station
Haze Haze  
Wind Chill: 84°   Ceiling: Unl
Heat Index: 87°   Visibility: 2.5mi
Dew Point: 68°   Wind: 7mph
Humidity: 58%   Direction: 340°NNW
Pressure: 29.88"   Gusts: NA
Location:  12.57°N, 99.95°E
Report Text: VTBU 210200Z 34006KT 4000 BR FEW020 SCT300 29/20 Q1012 A2990
Loading
Personal Weather Stations






























Interactive Weather Map New forecast layout! Learn more

10-Day Weather Forecast

Advertisements
Track Severe Weather on mobile